createdAt,value
2023-03-25T00:00:53.725Z,9.39
2023-03-25T00:03:34.708Z,9.38
2023-03-25T00:06:12.646Z,9.36
2023-03-25T00:08:48.200Z,9.36
2023-03-25T00:11:23.795Z,9.35
2023-03-25T00:13:59.077Z,9.33
2023-03-25T00:16:41.197Z,9.31
2023-03-25T00:19:17.090Z,9.29
2023-03-25T00:21:56.778Z,9.28
2023-03-25T00:24:32.651Z,9.26
2023-03-25T00:27:08.252Z,9.21
2023-03-25T00:30:01.854Z,9.16
2023-03-25T00:32:38.347Z,9.13
2023-03-25T00:35:19.886Z,9.12
2023-03-25T00:38:01.435Z,9.11
2023-03-25T00:40:39.178Z,9.07
2023-03-25T00:43:16.787Z,9.06
2023-03-25T00:45:53.978Z,9.05
2023-03-25T00:48:35.001Z,9.01
2023-03-25T00:51:14.920Z,9.00
2023-03-25T00:53:54.484Z,9.00
2023-03-25T00:56:34.086Z,9.00
2023-03-25T00:59:09.645Z,8.99
2023-03-25T01:01:46.806Z,8.97
2023-03-25T01:04:23.584Z,8.94
2023-03-25T01:06:57.768Z,8.93
2023-03-25T01:09:33.988Z,8.91
2023-03-25T01:12:10.551Z,8.89
2023-03-25T01:14:46.097Z,8.86
2023-03-25T01:17:23.498Z,8.83
2023-03-25T01:20:06.234Z,8.80
2023-03-25T01:22:43.273Z,8.77
2023-03-25T01:25:21.198Z,8.70
2023-03-25T01:27:58.413Z,8.67
2023-03-25T01:30:34.851Z,8.65
2023-03-25T01:33:10.914Z,8.64
2023-03-25T01:35:48.117Z,8.65
2023-03-25T01:38:34.069Z,8.64
2023-03-25T01:41:12.050Z,8.61
2023-03-25T01:44:19.168Z,8.59
2023-03-25T01:46:55.137Z,8.55
2023-03-25T01:49:40.088Z,8.53
2023-03-25T01:52:20.691Z,8.50
2023-03-25T01:54:59.822Z,8.45
2023-03-25T01:57:37.540Z,8.43
2023-03-25T02:00:27.505Z,8.43
2023-03-25T02:03:05.816Z,8.39
2023-03-25T02:05:51.083Z,8.36
2023-03-25T02:08:33.683Z,8.33
2023-03-25T02:11:10.277Z,8.32
2023-03-25T02:13:47.308Z,8.31
2023-03-25T02:16:34.868Z,8.32
2023-03-25T02:19:36.115Z,8.30
2023-03-25T02:26:01.159Z,8.25
2023-03-25T02:28:44.597Z,8.06
2023-03-25T02:32:02.069Z,8.06
2023-03-25T02:35:02.633Z,8.03
2023-03-25T02:38:15.787Z,8.02
2023-03-25T02:40:58.614Z,7.99
2023-03-25T02:43:44.034Z,7.99
2023-03-25T02:46:25.945Z,8.00
2023-03-25T02:49:07.745Z,8.01
2023-03-25T02:51:49.814Z,8.04
2023-03-25T02:54:28.579Z,8.05
2023-03-25T02:57:08.823Z,8.04
2023-03-25T02:59:47.793Z,8.08
2023-03-25T03:02:29.366Z,8.10
2023-03-25T03:05:23.489Z,8.12
2023-03-25T03:08:10.915Z,8.10
2023-03-25T03:10:53.701Z,8.10
2023-03-25T03:13:54.976Z,8.10
2023-03-25T03:16:43.949Z,8.09
2023-03-25T03:19:40.853Z,8.09
2023-03-25T03:22:36.377Z,8.06
2023-03-25T03:25:22.148Z,8.02
2023-03-25T03:28:05.886Z,8.00
2023-03-25T03:30:49.642Z,7.99
2023-03-25T03:33:36.449Z,8.00
2023-03-25T03:36:17.296Z,7.98
2023-03-25T03:39:00.981Z,7.98
2023-03-25T03:41:44.022Z,7.95
2023-03-25T03:44:29.839Z,7.91
2023-03-25T03:47:10.300Z,7.90
2023-03-25T03:49:51.814Z,7.87
2023-03-25T03:52:34.757Z,7.86
2023-03-25T03:55:16.312Z,7.82
2023-03-25T03:58:00.268Z,7.78
2023-03-25T04:00:39.768Z,7.74
2023-03-25T04:03:24.985Z,7.75
2023-03-25T04:06:17.555Z,7.73
2023-03-25T04:09:01.136Z,7.70
2023-03-25T04:11:43.926Z,7.68
2023-03-25T04:14:20.614Z,7.68
2023-03-25T04:16:57.505Z,7.67
2023-03-25T04:19:35.675Z,7.67
2023-03-25T04:22:13.954Z,7.66
2023-03-25T04:24:51.886Z,7.64
2023-03-25T04:27:30.204Z,7.64
2023-03-25T04:30:08.226Z,7.63
2023-03-25T04:32:48.084Z,7.62
2023-03-25T04:35:26.476Z,7.58
2023-03-25T04:38:03.626Z,7.56
2023-03-25T04:40:41.378Z,7.56
2023-03-25T04:43:21.066Z,7.57
2023-03-25T04:46:01.810Z,7.58
2023-03-25T04:48:44.395Z,7.60
2023-03-25T04:51:20.920Z,7.61
2023-03-25T04:53:59.176Z,7.60
2023-03-25T04:56:34.575Z,7.62
2023-03-25T04:59:12.644Z,7.62
2023-03-25T05:01:49.004Z,7.63
2023-03-25T05:04:25.885Z,7.64
2023-03-25T05:07:03.902Z,7.66
2023-03-25T05:09:41.944Z,7.66
2023-03-25T05:12:26.282Z,7.68
2023-03-25T05:15:02.431Z,7.64
2023-03-25T05:17:42.991Z,7.65
2023-03-25T05:20:19.068Z,7.68
2023-03-25T05:23:02.102Z,7.68
2023-03-25T05:25:39.885Z,7.67
2023-03-25T05:28:17.639Z,7.69
2023-03-25T05:31:00.299Z,7.69
2023-03-25T05:33:38.406Z,7.70
2023-03-25T05:36:14.384Z,7.74
2023-03-25T05:38:51.695Z,7.76
2023-03-25T05:41:33.869Z,7.80
2023-03-25T05:44:16.056Z,7.81
2023-03-25T05:46:53.221Z,7.82
2023-03-25T05:49:30.472Z,7.81
2023-03-25T05:52:07.094Z,7.80
2023-03-25T05:54:44.557Z,7.80
2023-03-25T05:57:19.892Z,7.80
2023-03-25T05:59:58.867Z,7.77
2023-03-25T06:02:34.986Z,7.78
2023-03-25T06:05:19.108Z,7.80
2023-03-25T06:07:58.502Z,7.79
2023-03-25T06:10:38.897Z,7.82
2023-03-25T06:13:16.084Z,7.85
2023-03-25T06:15:56.866Z,7.86
2023-03-25T06:18:35.913Z,7.88
2023-03-25T06:21:15.923Z,7.91
2023-03-25T06:23:52.420Z,7.96
2023-03-25T06:26:29.429Z,8.03
2023-03-25T06:29:06.435Z,8.09
2023-03-25T06:31:51.018Z,8.14
2023-03-25T06:34:28.868Z,8.18
2023-03-25T06:37:05.153Z,8.24
2023-03-25T06:39:40.224Z,8.26
2023-03-25T06:42:22.450Z,8.31
2023-03-25T06:45:44.538Z,8.35
2023-03-25T06:48:54.359Z,8.42
2023-03-25T06:51:51.923Z,8.49
2023-03-25T06:54:34.237Z,8.59
2023-03-25T06:57:11.060Z,8.70
2023-03-25T06:59:49.761Z,8.83
2023-03-25T07:02:26.809Z,8.98
2023-03-25T07:05:05.026Z,9.11
2023-03-25T07:07:41.666Z,9.23
2023-03-25T07:10:25.372Z,9.31
2023-03-25T07:13:06.301Z,9.40
2023-03-25T07:15:42.432Z,9.48
2023-03-25T07:18:18.983Z,9.59
2023-03-25T07:20:57.584Z,9.71
2023-03-25T07:23:34.529Z,9.82
2023-03-25T07:26:19.788Z,9.92
2023-03-25T07:28:58.723Z,10.00
2023-03-25T07:31:37.683Z,10.07
2023-03-25T07:34:17.860Z,10.19
2023-03-25T07:36:59.747Z,10.27
2023-03-25T07:39:39.635Z,10.34
2023-03-25T07:42:18.985Z,10.41
2023-03-25T07:45:22.739Z,10.47
2023-03-25T07:48:02.164Z,10.54
2023-03-25T07:50:41.152Z,10.64
2023-03-25T07:53:18.336Z,10.74
2023-03-25T07:55:56.111Z,10.81
2023-03-25T07:58:31.643Z,10.91
2023-03-25T08:01:08.377Z,11.01
2023-03-25T08:03:48.410Z,11.08
2023-03-25T08:06:31.685Z,11.14
2023-03-25T08:09:08.010Z,11.22
2023-03-25T08:11:46.835Z,11.30
2023-03-25T08:14:24.522Z,11.38
2023-03-25T08:17:01.555Z,11.42
2023-03-25T08:19:40.819Z,11.47
2023-03-25T08:22:19.128Z,11.54
2023-03-25T08:24:55.301Z,11.62
2023-03-25T08:27:33.397Z,11.66
2023-03-25T08:30:12.984Z,11.69
2023-03-25T08:32:59.553Z,11.74
2023-03-25T08:35:34.240Z,11.82
2023-03-25T08:38:14.319Z,11.84
2023-03-25T08:40:51.596Z,11.86
2023-03-25T08:43:28.602Z,11.85
2023-03-25T08:46:14.111Z,11.82
2023-03-25T08:48:51.052Z,11.77
2023-03-25T08:51:31.381Z,11.77
2023-03-25T08:54:09.320Z,11.81
2023-03-25T08:56:45.895Z,11.83
2023-03-25T08:59:24.361Z,11.84
2023-03-25T09:02:04.413Z,11.89
2023-03-25T09:04:41.979Z,11.95
2023-03-25T09:07:21.885Z,12.02
2023-03-25T09:09:59.521Z,12.06
2023-03-25T09:12:35.072Z,12.19
2023-03-25T09:15:20.785Z,12.34
2023-03-25T09:17:57.124Z,12.41
2023-03-25T09:20:42.289Z,12.45
2023-03-25T09:23:19.097Z,12.50
2023-03-25T09:26:14.820Z,12.50
2023-03-25T09:28:56.832Z,12.52
2023-03-25T09:31:30.307Z,12.56
2023-03-25T09:34:10.518Z,12.57
2023-03-25T09:36:46.890Z,12.61
2023-03-25T09:39:31.719Z,12.58
2023-03-25T09:42:34.134Z,12.55
2023-03-25T09:45:25.916Z,12.57
2023-03-25T09:48:06.458Z,12.59
2023-03-25T09:50:46.403Z,12.68
2023-03-25T09:53:34.034Z,12.70
2023-03-25T09:56:15.733Z,12.74
2023-03-25T09:58:56.124Z,12.88
2023-03-25T10:01:43.213Z,12.97
2023-03-25T10:04:47.419Z,13.01
2023-03-25T10:07:44.425Z,13.08
2023-03-25T10:10:29.174Z,13.14
2023-03-25T10:13:34.320Z,13.26
2023-03-25T10:16:24.521Z,13.27
2023-03-25T10:19:15.646Z,13.25
2023-03-25T10:22:05.363Z,13.20
2023-03-25T10:24:48.284Z,13.13
2023-03-25T10:27:29.748Z,13.10
2023-03-25T10:30:21.924Z,13.08
2023-03-25T10:33:00.816Z,13.09
2023-03-25T10:35:44.368Z,13.17
2023-03-25T10:38:22.032Z,13.20
2023-03-25T10:41:12.740Z,13.23
2023-03-25T10:43:51.045Z,13.22
2023-03-25T10:46:34.042Z,13.19
2023-03-25T10:49:14.686Z,13.13
2023-03-25T10:51:54.316Z,13.03
2023-03-25T10:54:33.276Z,12.93
2023-03-25T10:57:22.536Z,12.92
2023-03-25T11:00:07.705Z,12.91
2023-03-25T11:02:43.949Z,12.83
2023-03-25T11:05:22.705Z,12.84
2023-03-25T11:08:11.559Z,12.81
2023-03-25T11:10:57.980Z,12.74
2023-03-25T11:13:38.594Z,12.71
2023-03-25T11:16:17.490Z,12.71
2023-03-25T11:18:54.730Z,12.76
2023-03-25T11:21:39.599Z,12.78
2023-03-25T11:24:25.383Z,12.77
2023-03-25T11:27:09.084Z,12.74
2023-03-25T11:29:54.344Z,12.74
2023-03-25T11:32:37.303Z,12.71
2023-03-25T11:35:24.138Z,12.72
2023-03-25T11:38:21.100Z,12.68
2023-03-25T11:40:58.979Z,12.67
2023-03-25T11:43:38.446Z,12.68
2023-03-25T11:46:20.519Z,12.61
2023-03-25T11:48:59.376Z,12.61
2023-03-25T11:51:37.809Z,12.72
2023-03-25T11:54:19.483Z,12.82
2023-03-25T11:57:00.457Z,12.86
2023-03-25T11:59:45.661Z,12.87
2023-03-25T12:02:31.653Z,12.85
2023-03-25T12:05:18.062Z,12.81
2023-03-25T12:08:02.266Z,12.80
2023-03-25T12:11:13.269Z,12.87
2023-03-25T12:14:08.386Z,12.96
2023-03-25T12:16:53.357Z,13.01
2023-03-25T12:19:39.410Z,13.07
2023-03-25T12:22:52.010Z,13.08
2023-03-25T12:25:46.947Z,13.12
2023-03-25T12:28:56.538Z,13.17
2023-03-25T12:31:49.896Z,13.21
2023-03-25T12:34:37.686Z,13.24
2023-03-25T12:37:30.458Z,13.28
2023-03-25T12:40:29.895Z,13.31
2023-03-25T12:43:12.835Z,13.31
2023-03-25T12:46:00.485Z,13.35
2023-03-25T12:48:51.248Z,13.37
2023-03-25T12:51:46.607Z,13.46
2023-03-25T12:54:45.917Z,13.54
2023-03-25T12:57:40.685Z,13.60
2023-03-25T13:00:27.206Z,13.69
2023-03-25T13:03:35.957Z,13.77
2023-03-25T13:06:23.448Z,13.79
2023-03-25T13:09:04.651Z,13.85
2023-03-25T13:11:44.223Z,13.92
2023-03-25T13:14:27.451Z,13.94
2023-03-25T13:17:06.997Z,13.83
2023-03-25T13:19:47.487Z,13.68
2023-03-25T13:22:27.386Z,13.30
2023-03-25T13:25:08.841Z,12.76
2023-03-25T13:27:49.610Z,12.30
2023-03-25T13:30:34.862Z,12.03
2023-03-25T13:33:15.993Z,11.92
2023-03-25T13:36:00.400Z,11.78
2023-03-25T13:38:41.382Z,11.71
2023-03-25T13:41:19.872Z,11.67
2023-03-25T13:44:10.356Z,11.61
2023-03-25T13:46:52.597Z,11.55
2023-03-25T13:49:34.626Z,11.48
2023-03-25T13:52:13.343Z,11.44
2023-03-25T13:54:53.825Z,11.31
2023-03-25T13:57:48.080Z,11.37
2023-03-25T14:00:53.133Z,11.40
2023-03-25T14:03:57.805Z,11.42
2023-03-25T14:06:52.608Z,11.43
2023-03-25T14:10:08.739Z,11.51
2023-03-25T14:12:48.857Z,11.52
2023-03-25T14:15:31.874Z,11.53
2023-03-25T14:18:16.272Z,11.55
2023-03-25T14:20:53.709Z,11.60
2023-03-25T14:23:35.994Z,11.61
2023-03-25T14:26:14.552Z,11.61
2023-03-25T14:28:52.287Z,11.67
2023-03-25T14:31:35.249Z,11.70
2023-03-25T14:34:39.340Z,11.72
2023-03-25T14:37:53.231Z,11.71
2023-03-25T14:41:03.434Z,11.65
2023-03-25T14:43:47.874Z,11.65
2023-03-25T14:46:37.589Z,11.61
2023-03-25T14:49:30.700Z,11.62
2023-03-25T14:52:06.992Z,11.61
2023-03-25T14:54:52.040Z,11.65
2023-03-25T14:57:48.428Z,11.75
2023-03-25T15:00:31.203Z,11.85
2023-03-25T15:03:12.949Z,11.91
2023-03-25T15:05:57.058Z,11.98
2023-03-25T15:08:42.252Z,12.00
2023-03-25T15:11:29.703Z,12.04
2023-03-25T15:14:09.611Z,12.06
2023-03-25T15:17:12.795Z,12.08
2023-03-25T15:20:31.918Z,12.10
2023-03-25T15:23:36.428Z,12.11
2023-03-25T15:26:17.270Z,12.08
2023-03-25T15:29:23.184Z,12.06
2023-03-25T15:32:14.347Z,12.05
2023-03-25T15:35:08.064Z,12.05
2023-03-25T15:38:09.997Z,12.05
2023-03-25T15:41:00.155Z,12.05
2023-03-25T15:44:11.646Z,12.06
2023-03-25T15:47:17.004Z,12.04
2023-03-25T15:50:32.348Z,12.02
2023-03-25T15:54:02.785Z,12.00
2023-03-25T15:56:40.016Z,11.92
2023-03-25T15:59:30.929Z,11.92
2023-03-25T16:02:14.791Z,11.89
2023-03-25T16:04:55.396Z,11.89
2023-03-25T16:07:33.207Z,11.87
2023-03-25T16:10:19.717Z,11.84
2023-03-25T16:12:55.630Z,11.83
2023-03-25T16:15:34.055Z,11.79
2023-03-25T16:18:12.520Z,11.78
2023-03-25T16:20:56.961Z,11.79
2023-03-25T16:23:34.105Z,11.73
2023-03-25T16:26:16.762Z,11.67
2023-03-25T16:28:53.468Z,11.63
2023-03-25T16:31:43.605Z,11.58
2023-03-25T16:34:20.843Z,11.51
2023-03-25T16:36:58.811Z,11.43
2023-03-25T16:39:38.864Z,11.38
2023-03-25T16:42:21.487Z,11.34
2023-03-25T16:45:07.460Z,11.31
2023-03-25T16:47:48.305Z,11.24
2023-03-25T16:50:31.753Z,11.22
2023-03-25T16:53:08.664Z,11.16
2023-03-25T16:55:51.455Z,11.14
2023-03-25T16:58:37.663Z,11.07
2023-03-25T17:01:17.604Z,11.02
2023-03-25T17:04:08.165Z,10.97
2023-03-25T17:06:53.215Z,10.87
2023-03-25T17:09:35.229Z,10.83
2023-03-25T17:12:26.984Z,10.81
2023-03-25T17:15:10.267Z,10.73
2023-03-25T17:18:01.548Z,10.69
2023-03-25T17:20:42.074Z,10.67
2023-03-25T17:23:37.179Z,10.62
2023-03-25T17:26:16.216Z,10.58
2023-03-25T17:29:10.618Z,10.53
2023-03-25T17:31:55.747Z,10.47
2023-03-25T17:34:39.600Z,10.38
2023-03-25T17:37:17.047Z,10.31
2023-03-25T17:39:54.988Z,10.28
2023-03-25T17:42:33.928Z,10.25
2023-03-25T17:45:19.906Z,10.23
2023-03-25T17:47:55.733Z,10.17
2023-03-25T17:50:35.530Z,10.12
2023-03-25T17:53:14.213Z,10.11
2023-03-25T17:55:52.817Z,10.08
2023-03-25T17:58:29.035Z,10.06
2023-03-25T18:01:13.708Z,10.06
2023-03-25T18:03:51.606Z,10.07
2023-03-25T18:06:26.915Z,10.08
2023-03-25T18:09:07.384Z,10.06
2023-03-25T18:11:54.925Z,10.05
2023-03-25T18:14:30.686Z,10.00
2023-03-25T18:17:11.830Z,9.97
2023-03-25T18:19:47.948Z,9.92
2023-03-25T18:22:24.684Z,9.90
2023-03-25T18:25:05.407Z,9.83
2023-03-25T18:27:44.283Z,9.82
2023-03-25T18:30:30.915Z,9.80
2023-03-25T18:33:05.999Z,9.78
2023-03-25T18:35:40.680Z,9.81
2023-03-25T18:38:20.563Z,9.84
2023-03-25T18:40:56.031Z,9.86
2023-03-25T18:43:31.465Z,9.92
2023-03-25T18:46:15.850Z,9.95
2023-03-25T18:49:02.530Z,9.97
2023-03-25T18:51:37.568Z,9.99
2023-03-25T18:54:12.117Z,9.99
2023-03-25T18:56:51.419Z,10.00
2023-03-25T18:59:27.284Z,9.99
2023-03-25T19:02:02.040Z,9.97
2023-03-25T19:04:54.229Z,9.99
2023-03-25T19:07:41.561Z,9.98
2023-03-25T19:10:22.679Z,10.00
2023-03-25T19:13:01.053Z,10.00
2023-03-25T19:15:37.501Z,10.00
2023-03-25T19:18:19.764Z,9.97
2023-03-25T19:20:56.319Z,9.96
2023-03-25T19:23:36.590Z,9.86
2023-03-25T19:26:13.580Z,9.75
2023-03-25T19:28:50.118Z,9.62
2023-03-25T19:31:26.234Z,9.57
2023-03-25T19:34:01.925Z,9.54
2023-03-25T19:36:39.932Z,9.49
2023-03-25T19:39:16.187Z,9.46
2023-03-25T19:41:59.216Z,9.42
2023-03-25T19:44:34.433Z,9.38
2023-03-25T19:47:10.912Z,9.35
2023-03-25T19:49:49.616Z,9.30
2023-03-25T19:52:25.341Z,9.27
2023-03-25T19:55:01.548Z,9.25
2023-03-25T19:57:37.389Z,9.24
2023-03-25T20:00:23.287Z,9.18
2023-03-25T20:03:02.640Z,9.16
2023-03-25T20:05:41.581Z,9.13
2023-03-25T20:08:17.281Z,9.12
2023-03-25T20:10:56.772Z,9.10
2023-03-25T20:13:31.493Z,9.05
2023-03-25T20:16:07.746Z,9.03
2023-03-25T20:18:46.396Z,9.01
2023-03-25T20:21:23.789Z,9.00
2023-03-25T20:23:59.059Z,9.01
2023-03-25T20:26:34.171Z,9.02
2023-03-25T20:29:10.695Z,9.04
2023-03-25T20:31:45.360Z,9.04
2023-03-25T20:34:22.460Z,9.08
2023-03-25T20:37:02.305Z,9.09
2023-03-25T20:39:36.624Z,9.09
2023-03-25T20:42:12.733Z,9.07
2023-03-25T20:44:52.871Z,9.05
2023-03-25T20:47:27.666Z,9.03
2023-03-25T20:50:05.393Z,9.03
2023-03-25T20:52:40.787Z,9.00
2023-03-25T20:55:14.893Z,8.96
2023-03-25T20:57:50.272Z,8.92
2023-03-25T21:00:27.037Z,8.89
2023-03-25T21:03:02.688Z,8.84
2023-03-25T21:05:48.017Z,8.78
2023-03-25T21:08:23.338Z,8.75
2023-03-25T21:10:59.878Z,8.73
2023-03-25T21:13:35.718Z,8.73
2023-03-25T21:16:12.319Z,8.72
2023-03-25T21:18:51.025Z,8.68
2023-03-25T21:21:26.632Z,8.64
2023-03-25T21:24:04.282Z,8.62
2023-03-25T21:26:37.927Z,8.63
2023-03-25T21:29:12.270Z,8.62
2023-03-25T21:31:48.312Z,8.62
2023-03-25T21:34:23.212Z,8.60
2023-03-25T21:36:59.437Z,8.59
2023-03-25T21:39:39.040Z,8.53
2023-03-25T21:42:13.932Z,8.51
2023-03-25T21:44:50.662Z,8.52
2023-03-25T21:47:26.937Z,8.51
2023-03-25T21:50:02.265Z,8.47
2023-03-25T21:52:37.872Z,8.44
2023-03-25T21:55:14.790Z,8.42
2023-03-25T21:57:50.324Z,8.41
2023-03-25T22:00:28.055Z,8.40
2023-03-25T22:03:03.229Z,8.38
2023-03-25T22:05:39.023Z,8.34
2023-03-25T22:08:14.509Z,8.32
2023-03-25T22:10:51.163Z,8.32
2023-03-25T22:13:27.232Z,8.32
2023-03-25T22:16:03.993Z,8.32
2023-03-25T22:18:39.605Z,8.33
2023-03-25T22:21:18.272Z,8.35
2023-03-25T22:23:58.924Z,8.34
2023-03-25T22:26:36.304Z,8.33
2023-03-25T22:29:14.239Z,8.33
2023-03-25T22:31:51.011Z,8.33
2023-03-25T22:34:28.918Z,8.29
2023-03-25T22:37:04.765Z,8.26
2023-03-25T22:39:41.093Z,8.27
2023-03-25T22:42:17.315Z,8.26
2023-03-25T22:44:52.777Z,8.24
2023-03-25T22:47:28.703Z,8.22
2023-03-25T22:50:03.676Z,8.24
2023-03-25T22:52:41.558Z,8.25
2023-03-25T22:55:17.317Z,8.23
2023-03-25T22:57:51.353Z,8.26
2023-03-25T23:00:30.269Z,8.24
2023-03-25T23:03:06.605Z,8.19
2023-03-25T23:05:40.893Z,8.19
2023-03-25T23:08:17.275Z,8.17
2023-03-25T23:10:54.915Z,8.15
2023-03-25T23:13:31.099Z,8.14
2023-03-25T23:16:08.522Z,8.12
2023-03-25T23:18:43.534Z,8.11
2023-03-25T23:21:20.563Z,8.11
2023-03-25T23:24:00.746Z,8.12
2023-03-25T23:26:40.431Z,8.13
2023-03-25T23:29:18.242Z,8.12
2023-03-25T23:31:53.297Z,8.13
2023-03-25T23:34:30.708Z,8.11
2023-03-25T23:37:06.768Z,8.12
2023-03-25T23:39:42.208Z,8.10
2023-03-25T23:42:17.053Z,8.07
2023-03-25T23:44:53.625Z,8.06
2023-03-25T23:47:27.307Z,8.06
2023-03-25T23:50:02.279Z,8.08
2023-03-25T23:52:36.605Z,8.10
2023-03-25T23:55:15.624Z,8.12
2023-03-25T23:57:51.269Z,8.11
